<?xml version="1.0" encoding="UTF-8" standalone="no" ?>
<gpx xmlns="http://www.topografix.com/GPX/1/1" xmlns:xsi="http://www.w3.org/2001/XMLSchema-instance" xsi:schemaLocation="http://www.topografix.com/GPX/1/1 http://www.topografix.com/GPX/1/1/gpx.xsd" version="1.1" creator="VisuGPX - https://www.visugpx.com">
  <metadata>
    <name>BrocÃ©liande : une forÃªt lÃ©gendaire</name>
  </metadata>
  <wpt lat="48.00733" lon="-2.28748">
    <ele>89</ele>
    <name><![CDATA[Parking du centre bourg]]></name>
  </wpt>
  <wpt lat="48.00069" lon="-2.28599">
    <ele>97</ele>
    <name><![CDATA[Le Miroir aux FÃ©es]]></name>
  </wpt>
  <wpt lat="48.00641" lon="-2.27825">
    <ele>123.6</ele>
    <name><![CDATA[Ã l'aller = Tout droit / Au retour = Ã droite]]></name>
  </wpt>
  <wpt lat="48.003" lon="-2.27349">
    <ele>127</ele>
    <name><![CDATA[Ã droite aprÃ¨s le pont]]></name>
  </wpt>
  <wpt lat="48.00142" lon="-2.26961">
    <ele>161</ele>
    <name><![CDATA[Appuyer Ã  droite]]></name>
  </wpt>
  <wpt lat="47.99792" lon="-2.26939">
    <ele>179</ele>
    <name><![CDATA[Ã gauche en Ã©pingle]]></name>
  </wpt>
  <wpt lat="48.00144" lon="-2.278">
    <ele>138</ele>
    <name><![CDATA[Point de vue sur le Val sans Retour]]></name>
  </wpt>
  <wpt lat="48.00149" lon="-2.28246">
    <ele>138</ele>
    <name><![CDATA[Ã gauche sur la route]]></name>
  </wpt>
  <wpt lat="48.00734" lon="-2.28745">
    <ele>89</ele>
    <name><![CDATA[Parking du centre bourg]]></name>
  </wpt>
  <trk>
    <name><![CDATA[BrocÃ©liande : une forÃªt lÃ©gendaire]]></name>
    <extensions>
      <line xmlns="http://www.topografix.com/GPX/gpx_style/0/2">
        <color>0000FF</color>
        <width>4</width>
      </line>
    </extensions>
    <trkseg>
      <trkpt lat="48.00733" lon="-2.28748">
        <ele>89</ele>
        <time>2025-07-26T11:26:57.000Z</time>
      </trkpt>
      <trkpt lat="48.00736" lon="-2.28772">
        <ele>88</ele>
        <time>2025-07-26T11:27:16.000Z</time>
      </trkpt>
      <trkpt lat="48.00729" lon="-2.28777">
        <ele>88</ele>
        <time>2025-07-26T11:27:25.000Z</time>
      </trkpt>
      <trkpt lat="48.00693" lon="-2.28804">
        <ele>87</ele>
        <time>2025-07-26T11:28:11.000Z</time>
      </trkpt>
      <trkpt lat="48.0068" lon="-2.28814">
        <ele>87</ele>
        <time>2025-07-26T11:28:27.000Z</time>
      </trkpt>
      <trkpt lat="48.00635" lon="-2.28823">
        <ele>86</ele>
        <time>2025-07-26T11:29:20.000Z</time>
      </trkpt>
      <trkpt lat="48.00619" lon="-2.28823">
        <ele>86</ele>
        <time>2025-07-26T11:29:39.000Z</time>
      </trkpt>
      <trkpt lat="48.00606" lon="-2.28812">
        <ele>86</ele>
        <time>2025-07-26T11:29:56.000Z</time>
      </trkpt>
      <trkpt lat="48.00546" lon="-2.28756">
        <ele>86</ele>
        <time>2025-07-26T11:31:17.000Z</time>
      </trkpt>
      <trkpt lat="48.00523" lon="-2.28792">
        <ele>86</ele>
        <time>2025-07-26T11:31:55.000Z</time>
      </trkpt>
      <trkpt lat="48.00494" lon="-2.28801">
        <ele>87</ele>
        <time>2025-07-26T11:32:38.000Z</time>
      </trkpt>
      <trkpt lat="48.00463" lon="-2.28815">
        <ele>87</ele>
        <time>2025-07-26T11:33:16.000Z</time>
      </trkpt>
      <trkpt lat="48.00414" lon="-2.28838">
        <ele>87</ele>
        <time>2025-07-26T11:34:15.000Z</time>
      </trkpt>
      <trkpt lat="48.00377" lon="-2.28856">
        <ele>87</ele>
        <time>2025-07-26T11:34:59.000Z</time>
      </trkpt>
      <trkpt lat="48.00343" lon="-2.28872">
        <ele>87</ele>
        <time>2025-07-26T11:35:41.000Z</time>
      </trkpt>
      <trkpt lat="48.00317" lon="-2.28882">
        <ele>87</ele>
        <time>2025-07-26T11:36:11.000Z</time>
      </trkpt>
      <trkpt lat="48.00288" lon="-2.28898">
        <ele>87</ele>
        <time>2025-07-26T11:36:47.000Z</time>
      </trkpt>
      <trkpt lat="48.00253" lon="-2.28909">
        <ele>87</ele>
        <time>2025-07-26T11:37:28.000Z</time>
      </trkpt>
      <trkpt lat="48.0023" lon="-2.2891">
        <ele>87</ele>
        <time>2025-07-26T11:37:54.000Z</time>
      </trkpt>
      <trkpt lat="48.00206" lon="-2.289">
        <ele>87</ele>
        <time>2025-07-26T11:38:22.000Z</time>
      </trkpt>
      <trkpt lat="48.00182" lon="-2.28876">
        <ele>88</ele>
        <time>2025-07-26T11:39:05.000Z</time>
      </trkpt>
      <trkpt lat="48.0017" lon="-2.28847">
        <ele>87</ele>
        <time>2025-07-26T11:39:31.000Z</time>
      </trkpt>
      <trkpt lat="48.0016" lon="-2.28814">
        <ele>88</ele>
        <time>2025-07-26T11:40:09.000Z</time>
      </trkpt>
      <trkpt lat="48.00148" lon="-2.28769">
        <ele>88</ele>
        <time>2025-07-26T11:40:46.000Z</time>
      </trkpt>
      <trkpt lat="48.00138" lon="-2.28731">
        <ele>90</ele>
        <time>2025-07-26T11:41:38.000Z</time>
      </trkpt>
      <trkpt lat="48.00132" lon="-2.28716">
        <ele>92</ele>
        <time>2025-07-26T11:42:12.000Z</time>
      </trkpt>
      <trkpt lat="48.00118" lon="-2.28696">
        <ele>95</ele>
        <time>2025-07-26T11:43:04.000Z</time>
      </trkpt>
      <trkpt lat="48.00098" lon="-2.28675">
        <ele>94</ele>
        <time>2025-07-26T11:43:33.000Z</time>
      </trkpt>
      <trkpt lat="48.00087" lon="-2.28663">
        <ele>94</ele>
        <time>2025-07-26T11:43:48.000Z</time>
      </trkpt>
      <trkpt lat="48.00098" lon="-2.28654">
        <ele>94</ele>
        <time>2025-07-26T11:44:03.000Z</time>
      </trkpt>
      <trkpt lat="48.0011" lon="-2.28637">
        <ele>94</ele>
        <time>2025-07-26T11:44:21.000Z</time>
      </trkpt>
      <trkpt lat="48.00114" lon="-2.28623">
        <ele>97</ele>
        <time>2025-07-26T11:45:03.000Z</time>
      </trkpt>
      <trkpt lat="48.00107" lon="-2.28632">
        <ele>94</ele>
        <time>2025-07-26T11:45:13.000Z</time>
      </trkpt>
      <trkpt lat="48.00096" lon="-2.28648">
        <ele>94</ele>
        <time>2025-07-26T11:45:30.000Z</time>
      </trkpt>
      <trkpt lat="48.00083" lon="-2.28658">
        <ele>95</ele>
        <time>2025-07-26T11:45:58.000Z</time>
      </trkpt>
      <trkpt lat="48.00072" lon="-2.28629">
        <ele>95</ele>
        <time>2025-07-26T11:46:24.000Z</time>
      </trkpt>
      <trkpt lat="48.00069" lon="-2.28599">
        <ele>97</ele>
        <time>2025-07-26T11:47:08.000Z</time>
      </trkpt>
      <trkpt lat="48.00066" lon="-2.28579">
        <ele>96</ele>
        <time>2025-07-26T11:47:24.000Z</time>
      </trkpt>
      <trkpt lat="48.00056" lon="-2.28557">
        <ele>95</ele>
        <time>2025-07-26T11:47:44.000Z</time>
      </trkpt>
      <trkpt lat="48.00046" lon="-2.28536">
        <ele>96</ele>
        <time>2025-07-26T11:48:14.000Z</time>
      </trkpt>
      <trkpt lat="48.00026" lon="-2.28508">
        <ele>98</ele>
        <time>2025-07-26T11:49:06.000Z</time>
      </trkpt>
      <trkpt lat="48.00003" lon="-2.28468">
        <ele>99</ele>
        <time>2025-07-26T11:49:57.000Z</time>
      </trkpt>
      <trkpt lat="48.00002" lon="-2.28419">
        <ele>101</ele>
        <time>2025-07-26T11:50:55.000Z</time>
      </trkpt>
      <trkpt lat="47.99988" lon="-2.2838">
        <ele>102</ele>
        <time>2025-07-26T11:51:39.000Z</time>
      </trkpt>
      <trkpt lat="47.99988" lon="-2.28355">
        <ele>103</ele>
        <time>2025-07-26T11:52:08.000Z</time>
      </trkpt>
      <trkpt lat="47.99982" lon="-2.28335">
        <ele>103</ele>
        <time>2025-07-26T11:52:25.000Z</time>
      </trkpt>
      <trkpt lat="47.99982" lon="-2.28313">
        <ele>103</ele>
        <time>2025-07-26T11:52:42.000Z</time>
      </trkpt>
      <trkpt lat="47.99973" lon="-2.28286">
        <ele>104</ele>
        <time>2025-07-26T11:53:15.000Z</time>
      </trkpt>
      <trkpt lat="47.99967" lon="-2.28263">
        <ele>104</ele>
        <time>2025-07-26T11:53:34.000Z</time>
      </trkpt>
      <trkpt lat="47.99959" lon="-2.28243">
        <ele>104</ele>
        <time>2025-07-26T11:53:52.000Z</time>
      </trkpt>
      <trkpt lat="47.99953" lon="-2.28195">
        <ele>106</ele>
        <time>2025-07-26T11:54:50.000Z</time>
      </trkpt>
      <trkpt lat="47.99958" lon="-2.2815">
        <ele>107</ele>
        <time>2025-07-26T11:55:35.000Z</time>
      </trkpt>
      <trkpt lat="47.99967" lon="-2.28111">
        <ele>108</ele>
        <time>2025-07-26T11:56:17.000Z</time>
      </trkpt>
      <trkpt lat="47.99965" lon="-2.28082">
        <ele>110</ele>
        <time>2025-07-26T11:57:00.000Z</time>
      </trkpt>
      <trkpt lat="47.99967" lon="-2.28057">
        <ele>110</ele>
        <time>2025-07-26T11:57:19.000Z</time>
      </trkpt>
      <trkpt lat="47.99966" lon="-2.28028">
        <ele>110</ele>
        <time>2025-07-26T11:57:41.000Z</time>
      </trkpt>
      <trkpt lat="47.99981" lon="-2.2799">
        <ele>112</ele>
        <time>2025-07-26T11:58:36.000Z</time>
      </trkpt>
      <trkpt lat="47.99985" lon="-2.27975">
        <ele>112</ele>
        <time>2025-07-26T11:58:48.000Z</time>
      </trkpt>
      <trkpt lat="47.9999" lon="-2.2794">
        <ele>113</ele>
        <time>2025-07-26T11:59:26.000Z</time>
      </trkpt>
      <trkpt lat="48.00003" lon="-2.27915">
        <ele>113</ele>
        <time>2025-07-26T11:59:50.000Z</time>
      </trkpt>
      <trkpt lat="48.00006" lon="-2.279">
        <ele>114</ele>
        <time>2025-07-26T12:00:13.000Z</time>
      </trkpt>
      <trkpt lat="48.00034" lon="-2.27875">
        <ele>114</ele>
        <time>2025-07-26T12:00:50.000Z</time>
      </trkpt>
      <trkpt lat="48.00047" lon="-2.27862">
        <ele>114</ele>
        <time>2025-07-26T12:01:08.000Z</time>
      </trkpt>
      <trkpt lat="48.00067" lon="-2.2784">
        <ele>114</ele>
        <time>2025-07-26T12:01:36.000Z</time>
      </trkpt>
      <trkpt lat="48.00075" lon="-2.27811">
        <ele>116</ele>
        <time>2025-07-26T12:02:21.000Z</time>
      </trkpt>
      <trkpt lat="48.00087" lon="-2.27786">
        <ele>117</ele>
        <time>2025-07-26T12:02:55.000Z</time>
      </trkpt>
      <trkpt lat="48.00092" lon="-2.27752">
        <ele>117</ele>
        <time>2025-07-26T12:03:22.000Z</time>
      </trkpt>
      <trkpt lat="48.00096" lon="-2.27724">
        <ele>117</ele>
        <time>2025-07-26T12:03:44.000Z</time>
      </trkpt>
      <trkpt lat="48.00095" lon="-2.27705">
        <ele>119</ele>
        <time>2025-07-26T12:04:19.000Z</time>
      </trkpt>
      <trkpt lat="48.00107" lon="-2.27691">
        <ele>119</ele>
        <time>2025-07-26T12:04:37.000Z</time>
      </trkpt>
      <trkpt lat="48.00113" lon="-2.27674">
        <ele>122</ele>
        <time>2025-07-26T12:05:22.000Z</time>
      </trkpt>
      <trkpt lat="48.00137" lon="-2.27674">
        <ele>121</ele>
        <time>2025-07-26T12:05:49.000Z</time>
      </trkpt>
      <trkpt lat="48.0016" lon="-2.27657">
        <ele>121</ele>
        <time>2025-07-26T12:06:18.000Z</time>
      </trkpt>
      <trkpt lat="48.00169" lon="-2.27638">
        <ele>121</ele>
        <time>2025-07-26T12:06:36.000Z</time>
      </trkpt>
      <trkpt lat="48.00168" lon="-2.27601">
        <ele>122</ele>
        <time>2025-07-26T12:07:15.000Z</time>
      </trkpt>
      <trkpt lat="48.00173" lon="-2.27576">
        <ele>122</ele>
        <time>2025-07-26T12:07:35.000Z</time>
      </trkpt>
      <trkpt lat="48.00187" lon="-2.27553">
        <ele>121</ele>
        <time>2025-07-26T12:07:59.000Z</time>
      </trkpt>
      <trkpt lat="48.00207" lon="-2.27526">
        <ele>122</ele>
        <time>2025-07-26T12:08:41.000Z</time>
      </trkpt>
      <trkpt lat="48.00223" lon="-2.27505">
        <ele>122</ele>
        <time>2025-07-26T12:09:05.000Z</time>
      </trkpt>
      <trkpt lat="48.00239" lon="-2.27473">
        <ele>122</ele>
        <time>2025-07-26T12:09:36.000Z</time>
      </trkpt>
      <trkpt lat="48.00254" lon="-2.2744">
        <ele>123</ele>
        <time>2025-07-26T12:10:16.000Z</time>
      </trkpt>
      <trkpt lat="48.00262" lon="-2.27422">
        <ele>124</ele>
        <time>2025-07-26T12:10:43.000Z</time>
      </trkpt>
      <trkpt lat="48.0027" lon="-2.27393">
        <ele>126</ele>
        <time>2025-07-26T12:11:27.000Z</time>
      </trkpt>
      <trkpt lat="48.00286" lon="-2.27364">
        <ele>127</ele>
        <time>2025-07-26T12:12:06.000Z</time>
      </trkpt>
      <trkpt lat="48.003" lon="-2.27349">
        <ele>127</ele>
        <time>2025-07-26T12:12:26.000Z</time>
      </trkpt>
      <trkpt lat="48.00303" lon="-2.27334">
        <ele>127</ele>
        <time>2025-07-26T12:12:38.000Z</time>
      </trkpt>
      <trkpt lat="48.00291" lon="-2.27316">
        <ele>129</ele>
        <time>2025-07-26T12:13:18.000Z</time>
      </trkpt>
      <trkpt lat="48.00289" lon="-2.27289">
        <ele>133</ele>
        <time>2025-07-26T12:14:20.000Z</time>
      </trkpt>
      <trkpt lat="48.00292" lon="-2.27266">
        <ele>135</ele>
        <time>2025-07-26T12:14:59.000Z</time>
      </trkpt>
      <trkpt lat="48.00299" lon="-2.27233">
        <ele>139</ele>
        <time>2025-07-26T12:16:06.000Z</time>
      </trkpt>
      <trkpt lat="48.00306" lon="-2.27203">
        <ele>143</ele>
        <time>2025-07-26T12:17:12.000Z</time>
      </trkpt>
      <trkpt lat="48.00313" lon="-2.27177">
        <ele>146</ele>
        <time>2025-07-26T12:18:04.000Z</time>
      </trkpt>
      <trkpt lat="48.00314" lon="-2.27149">
        <ele>145</ele>
        <time>2025-07-26T12:18:25.000Z</time>
      </trkpt>
      <trkpt lat="48.00314" lon="-2.2712">
        <ele>146</ele>
        <time>2025-07-26T12:18:58.000Z</time>
      </trkpt>
      <trkpt lat="48.00313" lon="-2.2709">
        <ele>147</ele>
        <time>2025-07-26T12:19:31.000Z</time>
      </trkpt>
      <trkpt lat="48.0031" lon="-2.27056">
        <ele>147</ele>
        <time>2025-07-26T12:19:57.000Z</time>
      </trkpt>
      <trkpt lat="48.00305" lon="-2.27006">
        <ele>148</ele>
        <time>2025-07-26T12:20:45.000Z</time>
      </trkpt>
      <trkpt lat="48.00278" lon="-2.26995">
        <ele>146</ele>
        <time>2025-07-26T12:21:16.000Z</time>
      </trkpt>
      <trkpt lat="48.00256" lon="-2.26988">
        <ele>147</ele>
        <time>2025-07-26T12:21:52.000Z</time>
      </trkpt>
      <trkpt lat="48.00239" lon="-2.26976">
        <ele>148</ele>
        <time>2025-07-26T12:22:24.000Z</time>
      </trkpt>
      <trkpt lat="48.00221" lon="-2.26967">
        <ele>151</ele>
        <time>2025-07-26T12:23:16.000Z</time>
      </trkpt>
      <trkpt lat="48.00209" lon="-2.26962">
        <ele>153</ele>
        <time>2025-07-26T12:23:51.000Z</time>
      </trkpt>
      <trkpt lat="48.00185" lon="-2.26957">
        <ele>156</ele>
        <time>2025-07-26T12:24:49.000Z</time>
      </trkpt>
      <trkpt lat="48.00156" lon="-2.26958">
        <ele>159</ele>
        <time>2025-07-26T12:25:53.000Z</time>
      </trkpt>
      <trkpt lat="48.00142" lon="-2.26961">
        <ele>161</ele>
        <time>2025-07-26T12:26:30.000Z</time>
      </trkpt>
      <trkpt lat="48.00123" lon="-2.26975">
        <ele>164</ele>
        <time>2025-07-26T12:27:25.000Z</time>
      </trkpt>
      <trkpt lat="48.00099" lon="-2.27009">
        <ele>166</ele>
        <time>2025-07-26T12:28:23.000Z</time>
      </trkpt>
      <trkpt lat="48.00077" lon="-2.27043">
        <ele>167</ele>
        <time>2025-07-26T12:29:10.000Z</time>
      </trkpt>
      <trkpt lat="48.00067" lon="-2.27059">
        <ele>167</ele>
        <time>2025-07-26T12:29:27.000Z</time>
      </trkpt>
      <trkpt lat="48.00044" lon="-2.27072">
        <ele>169</ele>
        <time>2025-07-26T12:30:16.000Z</time>
      </trkpt>
      <trkpt lat="48.00016" lon="-2.27084">
        <ele>168</ele>
        <time>2025-07-26T12:30:49.000Z</time>
      </trkpt>
      <trkpt lat="47.99988" lon="-2.27078">
        <ele>169</ele>
        <time>2025-07-26T12:31:32.000Z</time>
      </trkpt>
      <trkpt lat="47.99967" lon="-2.27059">
        <ele>172</ele>
        <time>2025-07-26T12:32:32.000Z</time>
      </trkpt>
      <trkpt lat="47.99944" lon="-2.2704">
        <ele>173</ele>
        <time>2025-07-26T12:33:12.000Z</time>
      </trkpt>
      <trkpt lat="47.99924" lon="-2.27031">
        <ele>173</ele>
        <time>2025-07-26T12:33:36.000Z</time>
      </trkpt>
      <trkpt lat="47.99907" lon="-2.27007">
        <ele>175</ele>
        <time>2025-07-26T12:34:23.000Z</time>
      </trkpt>
      <trkpt lat="47.99897" lon="-2.26991">
        <ele>175</ele>
        <time>2025-07-26T12:34:41.000Z</time>
      </trkpt>
      <trkpt lat="47.99886" lon="-2.26976">
        <ele>176</ele>
        <time>2025-07-26T12:35:07.000Z</time>
      </trkpt>
      <trkpt lat="47.99858" lon="-2.26976">
        <ele>176</ele>
        <time>2025-07-26T12:35:39.000Z</time>
      </trkpt>
      <trkpt lat="47.9984" lon="-2.26967">
        <ele>178</ele>
        <time>2025-07-26T12:36:22.000Z</time>
      </trkpt>
      <trkpt lat="47.99823" lon="-2.2696">
        <ele>179</ele>
        <time>2025-07-26T12:36:52.000Z</time>
      </trkpt>
      <trkpt lat="47.99807" lon="-2.26947">
        <ele>180</ele>
        <time>2025-07-26T12:37:23.000Z</time>
      </trkpt>
      <trkpt lat="47.99792" lon="-2.26939">
        <ele>179</ele>
        <time>2025-07-26T12:37:42.000Z</time>
      </trkpt>
      <trkpt lat="47.9981" lon="-2.26922">
        <ele>179</ele>
        <time>2025-07-26T12:38:07.000Z</time>
      </trkpt>
      <trkpt lat="47.9983" lon="-2.26904">
        <ele>178</ele>
        <time>2025-07-26T12:38:34.000Z</time>
      </trkpt>
      <trkpt lat="47.99849" lon="-2.26892">
        <ele>179</ele>
        <time>2025-07-26T12:39:07.000Z</time>
      </trkpt>
      <trkpt lat="47.99865" lon="-2.26883">
        <ele>179</ele>
        <time>2025-07-26T12:39:27.000Z</time>
      </trkpt>
      <trkpt lat="47.99885" lon="-2.2688">
        <ele>179</ele>
        <time>2025-07-26T12:39:50.000Z</time>
      </trkpt>
      <trkpt lat="47.99906" lon="-2.26879">
        <ele>181</ele>
        <time>2025-07-26T12:40:35.000Z</time>
      </trkpt>
      <trkpt lat="47.9992" lon="-2.26866">
        <ele>184</ele>
        <time>2025-07-26T12:41:25.000Z</time>
      </trkpt>
      <trkpt lat="47.99917" lon="-2.26848">
        <ele>183</ele>
        <time>2025-07-26T12:41:39.000Z</time>
      </trkpt>
      <trkpt lat="47.99927" lon="-2.2684">
        <ele>185</ele>
        <time>2025-07-26T12:42:13.000Z</time>
      </trkpt>
      <trkpt lat="47.99938" lon="-2.26846">
        <ele>186</ele>
        <time>2025-07-26T12:42:36.000Z</time>
      </trkpt>
      <trkpt lat="47.99949" lon="-2.26861">
        <ele>187</ele>
        <time>2025-07-26T12:43:03.000Z</time>
      </trkpt>
      <trkpt lat="47.99958" lon="-2.26848">
        <ele>188</ele>
        <time>2025-07-26T12:43:28.000Z</time>
      </trkpt>
      <trkpt lat="47.99967" lon="-2.26842">
        <ele>189</ele>
        <time>2025-07-26T12:43:49.000Z</time>
      </trkpt>
      <trkpt lat="47.99971" lon="-2.26856">
        <ele>190</ele>
        <time>2025-07-26T12:44:12.000Z</time>
      </trkpt>
      <trkpt lat="47.9998" lon="-2.26873">
        <ele>189</ele>
        <time>2025-07-26T12:44:28.000Z</time>
      </trkpt>
      <trkpt lat="48.00008" lon="-2.2687">
        <ele>186</ele>
        <time>2025-07-26T12:45:00.000Z</time>
      </trkpt>
      <trkpt lat="48.00036" lon="-2.26874">
        <ele>183</ele>
        <time>2025-07-26T12:45:32.000Z</time>
      </trkpt>
      <trkpt lat="48.00054" lon="-2.26879">
        <ele>181</ele>
        <time>2025-07-26T12:45:53.000Z</time>
      </trkpt>
      <trkpt lat="48.00075" lon="-2.26871">
        <ele>178</ele>
        <time>2025-07-26T12:46:18.000Z</time>
      </trkpt>
      <trkpt lat="48.00085" lon="-2.26866">
        <ele>176</ele>
        <time>2025-07-26T12:46:30.000Z</time>
      </trkpt>
      <trkpt lat="48.00096" lon="-2.26883">
        <ele>175</ele>
        <time>2025-07-26T12:46:48.000Z</time>
      </trkpt>
      <trkpt lat="48.00112" lon="-2.26888">
        <ele>172</ele>
        <time>2025-07-26T12:47:06.000Z</time>
      </trkpt>
      <trkpt lat="48.00126" lon="-2.26913">
        <ele>167</ele>
        <time>2025-07-26T12:47:31.000Z</time>
      </trkpt>
      <trkpt lat="48.0014" lon="-2.26933">
        <ele>163</ele>
        <time>2025-07-26T12:47:53.000Z</time>
      </trkpt>
      <trkpt lat="48.00145" lon="-2.26952">
        <ele>161</ele>
        <time>2025-07-26T12:48:09.000Z</time>
      </trkpt>
      <trkpt lat="48.0018" lon="-2.2695">
        <ele>157</ele>
        <time>2025-07-26T12:48:49.000Z</time>
      </trkpt>
      <trkpt lat="48.00207" lon="-2.26954">
        <ele>153</ele>
        <time>2025-07-26T12:49:20.000Z</time>
      </trkpt>
      <trkpt lat="48.00231" lon="-2.26964">
        <ele>149</ele>
        <time>2025-07-26T12:49:49.000Z</time>
      </trkpt>
      <trkpt lat="48.00254" lon="-2.26976">
        <ele>147</ele>
        <time>2025-07-26T12:50:17.000Z</time>
      </trkpt>
      <trkpt lat="48.00274" lon="-2.26987">
        <ele>146</ele>
        <time>2025-07-26T12:50:42.000Z</time>
      </trkpt>
      <trkpt lat="48.00295" lon="-2.26994">
        <ele>147</ele>
        <time>2025-07-26T12:51:16.000Z</time>
      </trkpt>
      <trkpt lat="48.0031" lon="-2.27001">
        <ele>151</ele>
        <time>2025-07-26T12:52:15.000Z</time>
      </trkpt>
      <trkpt lat="48.00314" lon="-2.27038">
        <ele>149</ele>
        <time>2025-07-26T12:52:44.000Z</time>
      </trkpt>
      <trkpt lat="48.00316" lon="-2.27068">
        <ele>150</ele>
        <time>2025-07-26T12:53:17.000Z</time>
      </trkpt>
      <trkpt lat="48.00319" lon="-2.2712">
        <ele>146</ele>
        <time>2025-07-26T12:53:57.000Z</time>
      </trkpt>
      <trkpt lat="48.00318" lon="-2.27166">
        <ele>148</ele>
        <time>2025-07-26T12:54:53.000Z</time>
      </trkpt>
      <trkpt lat="48.00309" lon="-2.27207">
        <ele>145</ele>
        <time>2025-07-26T12:55:26.000Z</time>
      </trkpt>
      <trkpt lat="48.00304" lon="-2.27239">
        <ele>142</ele>
        <time>2025-07-26T12:55:51.000Z</time>
      </trkpt>
      <trkpt lat="48.00296" lon="-2.27264">
        <ele>136</ele>
        <time>2025-07-26T12:56:12.000Z</time>
      </trkpt>
      <trkpt lat="48.00294" lon="-2.27301">
        <ele>131</ele>
        <time>2025-07-26T12:56:41.000Z</time>
      </trkpt>
      <trkpt lat="48.00302" lon="-2.27322">
        <ele>128</ele>
        <time>2025-07-26T12:56:59.000Z</time>
      </trkpt>
      <trkpt lat="48.00308" lon="-2.27335">
        <ele>127</ele>
        <time>2025-07-26T12:57:11.000Z</time>
      </trkpt>
      <trkpt lat="48.00302" lon="-2.27359">
        <ele>127</ele>
        <time>2025-07-26T12:57:31.000Z</time>
      </trkpt>
      <trkpt lat="48.00289" lon="-2.27373">
        <ele>127</ele>
        <time>2025-07-26T12:57:49.000Z</time>
      </trkpt>
      <trkpt lat="48.00278" lon="-2.27391">
        <ele>126</ele>
        <time>2025-07-26T12:58:08.000Z</time>
      </trkpt>
      <trkpt lat="48.0027" lon="-2.27414">
        <ele>124</ele>
        <time>2025-07-26T12:58:28.000Z</time>
      </trkpt>
      <trkpt lat="48.00262" lon="-2.27441">
        <ele>123</ele>
        <time>2025-07-26T12:58:51.000Z</time>
      </trkpt>
      <trkpt lat="48.0025" lon="-2.27467">
        <ele>123</ele>
        <time>2025-07-26T12:59:15.000Z</time>
      </trkpt>
      <trkpt lat="48.00237" lon="-2.2749">
        <ele>123</ele>
        <time>2025-07-26T12:59:38.000Z</time>
      </trkpt>
      <trkpt lat="48.00227" lon="-2.27511">
        <ele>123</ele>
        <time>2025-07-26T12:59:58.000Z</time>
      </trkpt>
      <trkpt lat="48.00213" lon="-2.27528">
        <ele>123</ele>
        <time>2025-07-26T13:00:19.000Z</time>
      </trkpt>
      <trkpt lat="48.00199" lon="-2.27548">
        <ele>122</ele>
        <time>2025-07-26T13:00:41.000Z</time>
      </trkpt>
      <trkpt lat="48.00187" lon="-2.27559">
        <ele>121</ele>
        <time>2025-07-26T13:00:58.000Z</time>
      </trkpt>
      <trkpt lat="48.0019" lon="-2.27576">
        <ele>123</ele>
        <time>2025-07-26T13:01:32.000Z</time>
      </trkpt>
      <trkpt lat="48.00197" lon="-2.27597">
        <ele>125</ele>
        <time>2025-07-26T13:02:10.000Z</time>
      </trkpt>
      <trkpt lat="48.00196" lon="-2.27622">
        <ele>126</ele>
        <time>2025-07-26T13:02:40.000Z</time>
      </trkpt>
      <trkpt lat="48.00193" lon="-2.27638">
        <ele>126</ele>
        <time>2025-07-26T13:02:52.000Z</time>
      </trkpt>
      <trkpt lat="48.002" lon="-2.27666">
        <ele>130</ele>
        <time>2025-07-26T13:03:56.000Z</time>
      </trkpt>
      <trkpt lat="48.002" lon="-2.27675">
        <ele>129</ele>
        <time>2025-07-26T13:04:03.000Z</time>
      </trkpt>
      <trkpt lat="48.00194" lon="-2.27694">
        <ele>129</ele>
        <time>2025-07-26T13:04:19.000Z</time>
      </trkpt>
      <trkpt lat="48.00203" lon="-2.27708">
        <ele>133</ele>
        <time>2025-07-26T13:05:15.000Z</time>
      </trkpt>
      <trkpt lat="48.00203" lon="-2.27719">
        <ele>135</ele>
        <time>2025-07-26T13:05:45.000Z</time>
      </trkpt>
      <trkpt lat="48.0021" lon="-2.27734">
        <ele>138</ele>
        <time>2025-07-26T13:06:30.000Z</time>
      </trkpt>
      <trkpt lat="48.0021" lon="-2.27761">
        <ele>144</ele>
        <time>2025-07-26T13:07:52.000Z</time>
      </trkpt>
      <trkpt lat="48.00199" lon="-2.27786">
        <ele>148</ele>
        <time>2025-07-26T13:08:56.000Z</time>
      </trkpt>
      <trkpt lat="48.00187" lon="-2.27805">
        <ele>151</ele>
        <time>2025-07-26T13:09:47.000Z</time>
      </trkpt>
      <trkpt lat="48.00183" lon="-2.27826">
        <ele>153</ele>
        <time>2025-07-26T13:10:24.000Z</time>
      </trkpt>
      <trkpt lat="48.00175" lon="-2.2786">
        <ele>153</ele>
        <time>2025-07-26T13:10:52.000Z</time>
      </trkpt>
      <trkpt lat="48.00164" lon="-2.27843">
        <ele>151</ele>
        <time>2025-07-26T13:11:11.000Z</time>
      </trkpt>
      <trkpt lat="48.00153" lon="-2.27828">
        <ele>146</ele>
        <time>2025-07-26T13:11:27.000Z</time>
      </trkpt>
      <trkpt lat="48.00144" lon="-2.278">
        <ele>138</ele>
        <time>2025-07-26T13:11:51.000Z</time>
      </trkpt>
      <trkpt lat="48.0015" lon="-2.27824">
        <ele>144</ele>
        <time>2025-07-26T13:13:12.000Z</time>
      </trkpt>
      <trkpt lat="48.00154" lon="-2.27854">
        <ele>148</ele>
        <time>2025-07-26T13:14:16.000Z</time>
      </trkpt>
      <trkpt lat="48.0015" lon="-2.27877">
        <ele>149</ele>
        <time>2025-07-26T13:14:44.000Z</time>
      </trkpt>
      <trkpt lat="48.00146" lon="-2.27904">
        <ele>149</ele>
        <time>2025-07-26T13:15:05.000Z</time>
      </trkpt>
      <trkpt lat="48.00146" lon="-2.27925">
        <ele>149</ele>
        <time>2025-07-26T13:15:21.000Z</time>
      </trkpt>
      <trkpt lat="48.00137" lon="-2.27934">
        <ele>147</ele>
        <time>2025-07-26T13:15:33.000Z</time>
      </trkpt>
      <trkpt lat="48.0012" lon="-2.27935">
        <ele>143</ele>
        <time>2025-07-26T13:15:52.000Z</time>
      </trkpt>
      <trkpt lat="48.00113" lon="-2.27952">
        <ele>144</ele>
        <time>2025-07-26T13:16:18.000Z</time>
      </trkpt>
      <trkpt lat="48.0011" lon="-2.2798">
        <ele>144</ele>
        <time>2025-07-26T13:16:40.000Z</time>
      </trkpt>
      <trkpt lat="48.00101" lon="-2.28013">
        <ele>146</ele>
        <time>2025-07-26T13:17:28.000Z</time>
      </trkpt>
      <trkpt lat="48.00092" lon="-2.28039">
        <ele>146</ele>
        <time>2025-07-26T13:17:50.000Z</time>
      </trkpt>
      <trkpt lat="48.00081" lon="-2.28064">
        <ele>146</ele>
        <time>2025-07-26T13:18:13.000Z</time>
      </trkpt>
      <trkpt lat="48.00075" lon="-2.28095">
        <ele>144</ele>
        <time>2025-07-26T13:18:38.000Z</time>
      </trkpt>
      <trkpt lat="48.0008" lon="-2.28128">
        <ele>144</ele>
        <time>2025-07-26T13:19:04.000Z</time>
      </trkpt>
      <trkpt lat="48.00075" lon="-2.28151">
        <ele>143</ele>
        <time>2025-07-26T13:19:22.000Z</time>
      </trkpt>
      <trkpt lat="48.00069" lon="-2.28168">
        <ele>141</ele>
        <time>2025-07-26T13:19:37.000Z</time>
      </trkpt>
      <trkpt lat="48.00069" lon="-2.2818">
        <ele>141</ele>
        <time>2025-07-26T13:19:47.000Z</time>
      </trkpt>
      <trkpt lat="48.0008" lon="-2.28202">
        <ele>140</ele>
        <time>2025-07-26T13:20:08.000Z</time>
      </trkpt>
      <trkpt lat="48.00092" lon="-2.28217">
        <ele>140</ele>
        <time>2025-07-26T13:20:26.000Z</time>
      </trkpt>
      <trkpt lat="48.00103" lon="-2.28242">
        <ele>139</ele>
        <time>2025-07-26T13:20:49.000Z</time>
      </trkpt>
      <trkpt lat="48.00108" lon="-2.28263">
        <ele>138</ele>
        <time>2025-07-26T13:21:06.000Z</time>
      </trkpt>
      <trkpt lat="48.00106" lon="-2.28286">
        <ele>136</ele>
        <time>2025-07-26T13:21:24.000Z</time>
      </trkpt>
      <trkpt lat="48.00126" lon="-2.2827">
        <ele>137</ele>
        <time>2025-07-26T13:22:01.000Z</time>
      </trkpt>
      <trkpt lat="48.00139" lon="-2.28256">
        <ele>137</ele>
        <time>2025-07-26T13:22:19.000Z</time>
      </trkpt>
      <trkpt lat="48.00149" lon="-2.28246">
        <ele>138</ele>
        <time>2025-07-26T13:22:43.000Z</time>
      </trkpt>
      <trkpt lat="48.00163" lon="-2.28277">
        <ele>135</ele>
        <time>2025-07-26T13:23:12.000Z</time>
      </trkpt>
      <trkpt lat="48.00181" lon="-2.28313">
        <ele>132</ele>
        <time>2025-07-26T13:23:47.000Z</time>
      </trkpt>
      <trkpt lat="48.00195" lon="-2.28338">
        <ele>129</ele>
        <time>2025-07-26T13:24:12.000Z</time>
      </trkpt>
      <trkpt lat="48.00206" lon="-2.28366">
        <ele>128</ele>
        <time>2025-07-26T13:24:37.000Z</time>
      </trkpt>
      <trkpt lat="48.00214" lon="-2.28374">
        <ele>127</ele>
        <time>2025-07-26T13:24:48.000Z</time>
      </trkpt>
      <trkpt lat="48.00224" lon="-2.28373">
        <ele>127</ele>
        <time>2025-07-26T13:24:59.000Z</time>
      </trkpt>
      <trkpt lat="48.00238" lon="-2.28357">
        <ele>127</ele>
        <time>2025-07-26T13:25:20.000Z</time>
      </trkpt>
      <trkpt lat="48.00263" lon="-2.28319">
        <ele>127</ele>
        <time>2025-07-26T13:26:01.000Z</time>
      </trkpt>
      <trkpt lat="48.00281" lon="-2.28302">
        <ele>126</ele>
        <time>2025-07-26T13:26:25.000Z</time>
      </trkpt>
      <trkpt lat="48.00296" lon="-2.28278">
        <ele>126</ele>
        <time>2025-07-26T13:26:51.000Z</time>
      </trkpt>
      <trkpt lat="48.00314" lon="-2.28257">
        <ele>127</ele>
        <time>2025-07-26T13:27:28.000Z</time>
      </trkpt>
      <trkpt lat="48.00327" lon="-2.28241">
        <ele>128</ele>
        <time>2025-07-26T13:27:57.000Z</time>
      </trkpt>
      <trkpt lat="48.00338" lon="-2.2823">
        <ele>128</ele>
        <time>2025-07-26T13:28:13.000Z</time>
      </trkpt>
      <trkpt lat="48.00352" lon="-2.28236">
        <ele>127</ele>
        <time>2025-07-26T13:28:30.000Z</time>
      </trkpt>
      <trkpt lat="48.00373" lon="-2.28257">
        <ele>123</ele>
        <time>2025-07-26T13:28:59.000Z</time>
      </trkpt>
      <trkpt lat="48.00399" lon="-2.28279">
        <ele>118</ele>
        <time>2025-07-26T13:29:33.000Z</time>
      </trkpt>
      <trkpt lat="48.00404" lon="-2.28292">
        <ele>116</ele>
        <time>2025-07-26T13:29:44.000Z</time>
      </trkpt>
      <trkpt lat="48.0041" lon="-2.28321">
        <ele>113</ele>
        <time>2025-07-26T13:30:08.000Z</time>
      </trkpt>
      <trkpt lat="48.00414" lon="-2.28356">
        <ele>109</ele>
        <time>2025-07-26T13:30:35.000Z</time>
      </trkpt>
      <trkpt lat="48.00422" lon="-2.28397">
        <ele>104</ele>
        <time>2025-07-26T13:31:08.000Z</time>
      </trkpt>
      <trkpt lat="48.0043" lon="-2.28415">
        <ele>102</ele>
        <time>2025-07-26T13:31:24.000Z</time>
      </trkpt>
      <trkpt lat="48.00464" lon="-2.28446">
        <ele>98</ele>
        <time>2025-07-26T13:32:10.000Z</time>
      </trkpt>
      <trkpt lat="48.005" lon="-2.28488">
        <ele>95</ele>
        <time>2025-07-26T13:33:02.000Z</time>
      </trkpt>
      <trkpt lat="48.00526" lon="-2.28518">
        <ele>93</ele>
        <time>2025-07-26T13:33:40.000Z</time>
      </trkpt>
      <trkpt lat="48.00547" lon="-2.28546">
        <ele>91</ele>
        <time>2025-07-26T13:34:13.000Z</time>
      </trkpt>
      <trkpt lat="48.00568" lon="-2.28569">
        <ele>90</ele>
        <time>2025-07-26T13:34:43.000Z</time>
      </trkpt>
      <trkpt lat="48.00591" lon="-2.286">
        <ele>89</ele>
        <time>2025-07-26T13:35:18.000Z</time>
      </trkpt>
      <trkpt lat="48.00606" lon="-2.28621">
        <ele>88</ele>
        <time>2025-07-26T13:35:42.000Z</time>
      </trkpt>
      <trkpt lat="48.00621" lon="-2.28639">
        <ele>88</ele>
        <time>2025-07-26T13:36:04.000Z</time>
      </trkpt>
      <trkpt lat="48.00647" lon="-2.28633">
        <ele>89</ele>
        <time>2025-07-26T13:36:44.000Z</time>
      </trkpt>
      <trkpt lat="48.00674" lon="-2.28633">
        <ele>90</ele>
        <time>2025-07-26T13:37:25.000Z</time>
      </trkpt>
      <trkpt lat="48.00702" lon="-2.28636">
        <ele>90</ele>
        <time>2025-07-26T13:37:58.000Z</time>
      </trkpt>
      <trkpt lat="48.00713" lon="-2.28635">
        <ele>90</ele>
        <time>2025-07-26T13:38:10.000Z</time>
      </trkpt>
      <trkpt lat="48.00728" lon="-2.28652">
        <ele>89</ele>
        <time>2025-07-26T13:38:32.000Z</time>
      </trkpt>
      <trkpt lat="48.00744" lon="-2.28673">
        <ele>89</ele>
        <time>2025-07-26T13:38:56.000Z</time>
      </trkpt>
      <trkpt lat="48.00775" lon="-2.28676">
        <ele>89</ele>
        <time>2025-07-26T13:39:31.000Z</time>
      </trkpt>
      <trkpt lat="48.00789" lon="-2.28673">
        <ele>89</ele>
        <time>2025-07-26T13:39:47.000Z</time>
      </trkpt>
      <trkpt lat="48.00785" lon="-2.28692">
        <ele>89</ele>
        <time>2025-07-26T13:40:02.000Z</time>
      </trkpt>
      <trkpt lat="48.00778" lon="-2.28725">
        <ele>90</ele>
        <time>2025-07-26T13:40:39.000Z</time>
      </trkpt>
      <trkpt lat="48.00766" lon="-2.28734">
        <ele>90</ele>
        <time>2025-07-26T13:40:54.000Z</time>
      </trkpt>
      <trkpt lat="48.00734" lon="-2.28745">
        <ele>89</ele>
        <time>2025-07-26T13:41:32.000Z</time>
      </trkpt>
    </trkseg>
  </trk>
</gpx>